sensor_id;sensor_type;location;lat;lon;timestamp;P1;durP1;ratioP1;P2;durP2;ratioP2
76894;SDS011;65855;42.030;13.078;2024-03-02T00:00:10;7.93;;;4.05;;
76894;SDS011;65855;42.030;13.078;2024-03-02T00:02:41;7.95;;;3.58;;
76894;SDS011;65855;42.030;13.078;2024-03-02T00:05:11;8.27;;;4.32;;
76894;SDS011;65855;42.030;13.078;2024-03-02T00:07:37;7.40;;;3.63;;
76894;SDS011;65855;42.030;13.078;2024-03-02T00:10:07;6.28;;;2.75;;
76894;SDS011;65855;42.030;13.078;2024-03-02T00:12:38;8.52;;;3.95;;
76894;SDS011;65855;42.030;13.078;2024-03-02T00:18:01;6.18;;;2.47;;
76894;SDS011;65855;42.030;13.078;2024-03-02T00:20:27;8.43;;;3.70;;
76894;SDS011;65855;42.030;13.078;2024-03-02T00:23:05;6.97;;;3.55;;
76894;SDS011;65855;42.030;13.078;2024-03-02T00:25:38;8.98;;;4.10;;
76894;SDS011;65855;42.030;13.078;2024-03-02T00:28:13;9.57;;;4.70;;
76894;SDS011;65855;42.030;13.078;2024-03-02T00:33:19;9.23;;;5.75;;
76894;SDS011;65855;42.030;13.078;2024-03-02T00:35:46;11.57;;;5.28;;
76894;SDS011;65855;42.030;13.078;2024-03-02T00:38:12;13.05;;;5.90;;
76894;SDS011;65855;42.030;13.078;2024-03-02T00:40:40;9.40;;;5.18;;
76894;SDS011;65855;42.030;13.078;2024-03-02T00:43:11;11.50;;;4.10;;
76894;SDS011;65855;42.030;13.078;2024-03-02T00:46:04;9.25;;;4.30;;
76894;SDS011;65855;42.030;13.078;2024-03-02T00:48:30;10.50;;;4.30;;
76894;SDS011;65855;42.030;13.078;2024-03-02T00:51:01;7.38;;;3.65;;
76894;SDS011;65855;42.030;13.078;2024-03-02T00:53:28;8.80;;;4.32;;
76894;SDS011;65855;42.030;13.078;2024-03-02T00:55:55;7.60;;;3.70;;
76894;SDS011;65855;42.030;13.078;2024-03-02T00:58:21;8.48;;;3.90;;
76894;SDS011;65855;42.030;13.078;2024-03-02T01:00:46;6.60;;;3.40;;
76894;SDS011;65855;42.030;13.078;2024-03-02T01:03:12;8.90;;;3.20;;
76894;SDS011;65855;42.030;13.078;2024-03-02T01:05:41;7.43;;;3.35;;
76894;SDS011;65855;42.030;13.078;2024-03-02T01:08:10;8.32;;;4.25;;
76894;SDS011;65855;42.030;13.078;2024-03-02T01:10:36;8.32;;;3.97;;
76894;SDS011;65855;42.030;13.078;2024-03-02T01:13:01;8.18;;;4.60;;
76894;SDS011;65855;42.030;13.078;2024-03-02T01:15:27;10.45;;;5.75;;
76894;SDS011;65855;42.030;13.078;2024-03-02T01:17:52;10.88;;;5.30;;
76894;SDS011;65855;42.030;13.078;2024-03-02T01:20:18;10.20;;;5.28;;
76894;SDS011;65855;42.030;13.078;2024-03-02T01:22:43;11.75;;;5.65;;
76894;SDS011;65855;42.030;13.078;2024-03-02T01:25:09;9.70;;;4.90;;
76894;SDS011;65855;42.030;13.078;2024-03-02T01:27:35;9.90;;;5.15;;
76894;SDS011;65855;42.030;13.078;2024-03-02T01:30:00;10.20;;;4.78;;
76894;SDS011;65855;42.030;13.078;2024-03-02T01:32:26;9.00;;;3.63;;
76894;SDS011;65855;42.030;13.078;2024-03-02T01:34:52;9.80;;;3.53;;
76894;SDS011;65855;42.030;13.078;2024-03-02T01:37:17;8.10;;;3.85;;
76894;SDS011;65855;42.030;13.078;2024-03-02T01:39:43;9.77;;;4.45;;
76894;SDS011;65855;42.030;13.078;2024-03-02T01:42:08;11.20;;;4.75;;
76894;SDS011;65855;42.030;13.078;2024-03-02T01:44:35;9.77;;;4.60;;
76894;SDS011;65855;42.030;13.078;2024-03-02T01:47:01;11.50;;;5.43;;
76894;SDS011;65855;42.030;13.078;2024-03-02T01:49:27;9.65;;;4.68;;
76894;SDS011;65855;42.030;13.078;2024-03-02T01:51:52;11.27;;;5.78;;
76894;SDS011;65855;42.030;13.078;2024-03-02T01:54:17;9.23;;;4.80;;
76894;SDS011;65855;42.030;13.078;2024-03-02T01:56:43;8.68;;;4.53;;
76894;SDS011;65855;42.030;13.078;2024-03-02T01:59:10;9.23;;;4.88;;
76894;SDS011;65855;42.030;13.078;2024-03-02T02:01:38;7.93;;;4.32;;
76894;SDS011;65855;42.030;13.078;2024-03-02T02:04:03;8.57;;;4.43;;
76894;SDS011;65855;42.030;13.078;2024-03-02T02:06:29;8.75;;;3.90;;
76894;SDS011;65855;42.030;13.078;2024-03-02T02:08:54;8.75;;;4.18;;
76894;SDS011;65855;42.030;13.078;2024-03-02T02:11:20;10.40;;;4.57;;
76894;SDS011;65855;42.030;13.078;2024-03-02T02:13:45;8.27;;;3.92;;
76894;SDS011;65855;42.030;13.078;2024-03-02T02:16:11;9.85;;;4.85;;
76894;SDS011;65855;42.030;13.078;2024-03-02T02:18:36;9.15;;;4.70;;
76894;SDS011;65855;42.030;13.078;2024-03-02T02:21:02;9.10;;;4.78;;
76894;SDS011;65855;42.030;13.078;2024-03-02T02:23:28;9.20;;;4.40;;
76894;SDS011;65855;42.030;13.078;2024-03-02T02:25:54;8.68;;;4.18;;
76894;SDS011;65855;42.030;13.078;2024-03-02T02:28:19;9.38;;;4.63;;
76894;SDS011;65855;42.030;13.078;2024-03-02T02:30:45;8.85;;;4.70;;
76894;SDS011;65855;42.030;13.078;2024-03-02T02:33:10;9.65;;;4.35;;
76894;SDS011;65855;42.030;13.078;2024-03-02T02:35:36;9.07;;;6.70;;
76894;SDS011;65855;42.030;13.078;2024-03-02T02:38:01;7.68;;;3.38;;
76894;SDS011;65855;42.030;13.078;2024-03-02T02:40:28;9.82;;;4.50;;
76894;SDS011;65855;42.030;13.078;2024-03-02T02:42:56;8.90;;;4.53;;
76894;SDS011;65855;42.030;13.078;2024-03-02T02:45:23;7.47;;;3.67;;
76894;SDS011;65855;42.030;13.078;2024-03-02T02:47:48;9.45;;;5.13;;
76894;SDS011;65855;42.030;13.078;2024-03-02T02:50:14;7.82;;;4.05;;
76894;SDS011;65855;42.030;13.078;2024-03-02T02:52:40;7.68;;;3.60;;
76894;SDS011;65855;42.030;13.078;2024-03-02T02:55:08;8.75;;;3.55;;
76894;SDS011;65855;42.030;13.078;2024-03-02T02:57:34;10.45;;;4.20;;
76894;SDS011;65855;42.030;13.078;2024-03-02T03:00:03;6.93;;;3.72;;
76894;SDS011;65855;42.030;13.078;2024-03-02T03:02:34;8.40;;;4.63;;
76894;SDS011;65855;42.030;13.078;2024-03-02T03:05:00;8.07;;;4.70;;
76894;SDS011;65855;42.030;13.078;2024-03-02T03:07:25;8.93;;;4.13;;
76894;SDS011;65855;42.030;13.078;2024-03-02T03:09:51;8.10;;;3.80;;
76894;SDS011;65855;42.030;13.078;2024-03-02T03:12:16;7.70;;;3.60;;
76894;SDS011;65855;42.030;13.078;2024-03-02T03:14:42;9.73;;;3.95;;
76894;SDS011;65855;42.030;13.078;2024-03-02T03:17:07;8.85;;;4.25;;
76894;SDS011;65855;42.030;13.078;2024-03-02T03:19:33;8.25;;;3.78;;
76894;SDS011;65855;42.030;13.078;2024-03-02T03:21:58;7.95;;;4.25;;
76894;SDS011;65855;42.030;13.078;2024-03-02T03:24:24;8.45;;;4.30;;
76894;SDS011;65855;42.030;13.078;2024-03-02T03:26:49;8.30;;;4.13;;
76894;SDS011;65855;42.030;13.078;2024-03-02T03:29:15;8.35;;;3.75;;
76894;SDS011;65855;42.030;13.078;2024-03-02T03:31:40;7.25;;;4.18;;
76894;SDS011;65855;42.030;13.078;2024-03-02T03:34:06;10.05;;;4.05;;
76894;SDS011;65855;42.030;13.078;2024-03-02T03:36:31;7.38;;;3.53;;
76894;SDS011;65855;42.030;13.078;2024-03-02T03:38:57;6.70;;;3.53;;
76894;SDS011;65855;42.030;13.078;2024-03-02T03:41:22;8.18;;;4.43;;
76894;SDS011;65855;42.030;13.078;2024-03-02T03:43:48;7.75;;;3.92;;
76894;SDS011;65855;42.030;13.078;2024-03-02T03:46:13;6.82;;;3.22;;
76894;SDS011;65855;42.030;13.078;2024-03-02T03:48:39;8.40;;;3.90;;
76894;SDS011;65855;42.030;13.078;2024-03-02T03:51:04;7.82;;;4.10;;
76894;SDS011;65855;42.030;13.078;2024-03-02T03:53:30;9.43;;;4.57;;
76894;SDS011;65855;42.030;13.078;2024-03-02T03:55:55;8.50;;;5.43;;
76894;SDS011;65855;42.030;13.078;2024-03-02T03:58:21;10.57;;;4.78;;
76894;SDS011;65855;42.030;13.078;2024-03-02T04:00:46;9.15;;;4.35;;
76894;SDS011;65855;42.030;13.078;2024-03-02T04:03:12;9.98;;;4.47;;
76894;SDS011;65855;42.030;13.078;2024-03-02T04:05:38;10.15;;;5.07;;
76894;SDS011;65855;42.030;13.078;2024-03-02T04:08:03;7.45;;;3.97;;
76894;SDS011;65855;42.030;13.078;2024-03-02T04:10:29;9.85;;;4.43;;
76894;SDS011;65855;42.030;13.078;2024-03-02T04:12:55;7.78;;;4.00;;
76894;SDS011;65855;42.030;13.078;2024-03-02T04:15:20;8.60;;;4.75;;
76894;SDS011;65855;42.030;13.078;2024-03-02T04:17:48;10.32;;;5.32;;
76894;SDS011;65855;42.030;13.078;2024-03-02T04:20:13;7.50;;;3.63;;
76894;SDS011;65855;42.030;13.078;2024-03-02T04:22:39;5.60;;;2.45;;
76894;SDS011;65855;42.030;13.078;2024-03-02T04:25:04;12.65;;;6.40;;
76894;SDS011;65855;42.030;13.078;2024-03-02T04:27:30;7.75;;;3.40;;
76894;SDS011;65855;42.030;13.078;2024-03-02T04:29:59;8.68;;;3.90;;
76894;SDS011;65855;42.030;13.078;2024-03-02T04:32:25;11.57;;;3.88;;
76894;SDS011;65855;42.030;13.078;2024-03-02T04:34:53;9.70;;;5.13;;
76894;SDS011;65855;42.030;13.078;2024-03-02T04:37:19;9.63;;;4.93;;
76894;SDS011;65855;42.030;13.078;2024-03-02T04:39:45;6.75;;;2.63;;
76894;SDS011;65855;42.030;13.078;2024-03-02T04:42:10;7.30;;;3.08;;
76894;SDS011;65855;42.030;13.078;2024-03-02T04:44:36;8.10;;;3.17;;
76894;SDS011;65855;42.030;13.078;2024-03-02T04:47:03;6.70;;;5.22;;
76894;SDS011;65855;42.030;13.078;2024-03-02T04:49:29;7.78;;;2.45;;
76894;SDS011;65855;42.030;13.078;2024-03-02T04:51:55;6.75;;;2.70;;
76894;SDS011;65855;42.030;13.078;2024-03-02T04:54:21;5.60;;;2.90;;
76894;SDS011;65855;42.030;13.078;2024-03-02T04:56:47;7.20;;;3.47;;
76894;SDS011;65855;42.030;13.078;2024-03-02T04:59:19;8.35;;;3.92;;
76894;SDS011;65855;42.030;13.078;2024-03-02T05:01:45;12.20;;;5.55;;
76894;SDS011;65855;42.030;13.078;2024-03-02T05:04:10;7.30;;;3.78;;
76894;SDS011;65855;42.030;13.078;2024-03-02T05:06:40;6.57;;;2.85;;
76894;SDS011;65855;42.030;13.078;2024-03-02T05:09:06;5.65;;;2.65;;
76894;SDS011;65855;42.030;13.078;2024-03-02T05:11:34;6.22;;;3.00;;
76894;SDS011;65855;42.030;13.078;2024-03-02T05:14:03;6.25;;;2.65;;
76894;SDS011;65855;42.030;13.078;2024-03-02T05:16:29;7.07;;;3.33;;
76894;SDS011;65855;42.030;13.078;2024-03-02T05:18:58;7.75;;;2.90;;
76894;SDS011;65855;42.030;13.078;2024-03-02T05:21:23;6.97;;;3.28;;
76894;SDS011;65855;42.030;13.078;2024-03-02T05:23:49;5.78;;;2.83;;
76894;SDS011;65855;42.030;13.078;2024-03-02T05:26:14;7.57;;;3.65;;
76894;SDS011;65855;42.030;13.078;2024-03-02T05:28:40;7.70;;;3.40;;
76894;SDS011;65855;42.030;13.078;2024-03-02T05:31:05;6.63;;;2.88;;
76894;SDS011;65855;42.030;13.078;2024-03-02T05:33:31;7.25;;;2.40;;
76894;SDS011;65855;42.030;13.078;2024-03-02T05:35:58;8.23;;;2.90;;
76894;SDS011;65855;42.030;13.078;2024-03-02T05:38:24;6.75;;;3.03;;
76894;SDS011;65855;42.030;13.078;2024-03-02T05:40:49;6.40;;;2.90;;
76894;SDS011;65855;42.030;13.078;2024-03-02T05:43:15;6.78;;;2.95;;
76894;SDS011;65855;42.030;13.078;2024-03-02T05:45:40;6.07;;;3.00;;
76894;SDS011;65855;42.030;13.078;2024-03-02T05:48:06;6.22;;;2.63;;
76894;SDS011;65855;42.030;13.078;2024-03-02T05:50:33;4.40;;;1.83;;
76894;SDS011;65855;42.030;13.078;2024-03-02T05:52:58;5.47;;;2.47;;
76894;SDS011;65855;42.030;13.078;2024-03-02T05:55:24;5.38;;;2.40;;
76894;SDS011;65855;42.030;13.078;2024-03-02T05:57:49;5.05;;;2.15;;
76894;SDS011;65855;42.030;13.078;2024-03-02T06:00:35;5.57;;;2.38;;
76894;SDS011;65855;42.030;13.078;2024-03-02T06:03:01;5.63;;;2.30;;
76894;SDS011;65855;42.030;13.078;2024-03-02T06:05:27;7.53;;;2.55;;
76894;SDS011;65855;42.030;13.078;2024-03-02T06:07:52;7.40;;;2.92;;
76894;SDS011;65855;42.030;13.078;2024-03-02T06:10:18;6.97;;;2.83;;
76894;SDS011;65855;42.030;13.078;2024-03-02T06:12:43;5.70;;;2.78;;
76894;SDS011;65855;42.030;13.078;2024-03-02T06:15:09;5.45;;;2.30;;
76894;SDS011;65855;42.030;13.078;2024-03-02T06:17:36;6.15;;;2.55;;
76894;SDS011;65855;42.030;13.078;2024-03-02T06:20:01;7.32;;;2.72;;
76894;SDS011;65855;42.030;13.078;2024-03-02T06:22:27;5.82;;;2.05;;
76894;SDS011;65855;42.030;13.078;2024-03-02T06:24:53;6.30;;;2.75;;
76894;SDS011;65855;42.030;13.078;2024-03-02T06:27:18;6.20;;;2.58;;
76894;SDS011;65855;42.030;13.078;2024-03-02T06:29:44;5.35;;;2.33;;
76894;SDS011;65855;42.030;13.078;2024-03-02T06:32:09;6.00;;;2.72;;
76894;SDS011;65855;42.030;13.078;2024-03-02T06:34:35;4.88;;;2.10;;
76894;SDS011;65855;42.030;13.078;2024-03-02T06:37:00;8.57;;;2.10;;
76894;SDS011;65855;42.030;13.078;2024-03-02T06:39:25;5.18;;;2.65;;
76894;SDS011;65855;42.030;13.078;2024-03-02T06:41:51;4.93;;;2.13;;
76894;SDS011;65855;42.030;13.078;2024-03-02T06:44:17;5.25;;;2.58;;
76894;SDS011;65855;42.030;13.078;2024-03-02T06:46:42;5.30;;;4.20;;
76894;SDS011;65855;42.030;13.078;2024-03-02T06:49:08;8.70;;;5.03;;
76894;SDS011;65855;42.030;13.078;2024-03-02T06:51:35;9.57;;;5.80;;
76894;SDS011;65855;42.030;13.078;2024-03-02T06:54:01;7.13;;;3.97;;
76894;SDS011;65855;42.030;13.078;2024-03-02T06:56:26;6.88;;;3.55;;
76894;SDS011;65855;42.030;13.078;2024-03-02T06:58:52;6.32;;;2.80;;
76894;SDS011;65855;42.030;13.078;2024-03-02T07:01:17;5.55;;;2.63;;
76894;SDS011;65855;42.030;13.078;2024-03-02T07:03:42;5.07;;;2.17;;
76894;SDS011;65855;42.030;13.078;2024-03-02T07:06:09;4.60;;;1.85;;
76894;SDS011;65855;42.030;13.078;2024-03-02T07:08:34;5.57;;;2.53;;
76894;SDS011;65855;42.030;13.078;2024-03-02T07:11:00;4.70;;;2.08;;
76894;SDS011;65855;42.030;13.078;2024-03-02T07:13:25;4.70;;;2.05;;
76894;SDS011;65855;42.030;13.078;2024-03-02T07:15:51;5.55;;;1.88;;
76894;SDS011;65855;42.030;13.078;2024-03-02T07:18:32;7.00;;;2.28;;
76894;SDS011;65855;42.030;13.078;2024-03-02T07:21:09;5.38;;;2.30;;
76894;SDS011;65855;42.030;13.078;2024-03-02T07:23:34;7.20;;;3.03;;
76894;SDS011;65855;42.030;13.078;2024-03-02T07:26:00;10.73;;;3.88;;
76894;SDS011;65855;42.030;13.078;2024-03-02T07:28:26;9.32;;;3.67;;
76894;SDS011;65855;42.030;13.078;2024-03-02T07:30:59;7.38;;;3.25;;
76894;SDS011;65855;42.030;13.078;2024-03-02T07:33:25;6.18;;;2.40;;
76894;SDS011;65855;42.030;13.078;2024-03-02T07:35:51;6.00;;;2.53;;
76894;SDS011;65855;42.030;13.078;2024-03-02T07:38:16;7.07;;;2.47;;
76894;SDS011;65855;42.030;13.078;2024-03-02T07:40:42;8.40;;;2.63;;
76894;SDS011;65855;42.030;13.078;2024-03-02T07:43:07;4.97;;;2.28;;
76894;SDS011;65855;42.030;13.078;2024-03-02T07:45:33;4.75;;;2.33;;
76894;SDS011;65855;42.030;13.078;2024-03-02T07:48:01;5.47;;;1.95;;
76894;SDS011;65855;42.030;13.078;2024-03-02T07:50:26;4.57;;;1.90;;
76894;SDS011;65855;42.030;13.078;2024-03-02T07:52:52;4.68;;;1.83;;
76894;SDS011;65855;42.030;13.078;2024-03-02T07:55:17;5.10;;;1.90;;
76894;SDS011;65855;42.030;13.078;2024-03-02T07:57:43;4.30;;;1.67;;
76894;SDS011;65855;42.030;13.078;2024-03-02T08:00:09;6.10;;;2.00;;
76894;SDS011;65855;42.030;13.078;2024-03-02T08:02:34;6.43;;;2.88;;
76894;SDS011;65855;42.030;13.078;2024-03-02T08:05:00;6.03;;;2.92;;
76894;SDS011;65855;42.030;13.078;2024-03-02T08:07:26;4.60;;;1.98;;
76894;SDS011;65855;42.030;13.078;2024-03-02T08:09:52;3.35;;;1.40;;
76894;SDS011;65855;42.030;13.078;2024-03-02T08:12:17;3.50;;;1.67;;
76894;SDS011;65855;42.030;13.078;2024-03-02T08:14:44;3.50;;;1.52;;
76894;SDS011;65855;42.030;13.078;2024-03-02T08:17:10;3.90;;;1.58;;
76894;SDS011;65855;42.030;13.078;2024-03-02T08:19:36;2.65;;;0.90;;
76894;SDS011;65855;42.030;13.078;2024-03-02T08:22:02;4.03;;;1.45;;
76894;SDS011;65855;42.030;13.078;2024-03-02T08:24:28;4.30;;;1.67;;
76894;SDS011;65855;42.030;13.078;2024-03-02T08:26:54;4.90;;;1.63;;
76894;SDS011;65855;42.030;13.078;2024-03-02T08:29:19;4.65;;;1.75;;
76894;SDS011;65855;42.030;13.078;2024-03-02T08:31:44;5.10;;;1.63;;
76894;SDS011;65855;42.030;13.078;2024-03-02T08:34:10;3.90;;;1.73;;
76894;SDS011;65855;42.030;13.078;2024-03-02T08:36:35;3.92;;;1.27;;
76894;SDS011;65855;42.030;13.078;2024-03-02T08:39:01;3.28;;;1.05;;
76894;SDS011;65855;42.030;13.078;2024-03-02T08:41:28;2.72;;;0.85;;
76894;SDS011;65855;42.030;13.078;2024-03-02T08:43:53;2.42;;;1.00;;
76894;SDS011;65855;42.030;13.078;2024-03-02T08:46:19;2.45;;;1.02;;
76894;SDS011;65855;42.030;13.078;2024-03-02T08:48:45;2.85;;;1.10;;
76894;SDS011;65855;42.030;13.078;2024-03-02T08:51:10;3.25;;;1.10;;
76894;SDS011;65855;42.030;13.078;2024-03-02T08:53:36;2.95;;;0.93;;
76894;SDS011;65855;42.030;13.078;2024-03-02T08:56:02;3.03;;;1.10;;
76894;SDS011;65855;42.030;13.078;2024-03-02T08:58:30;4.25;;;1.23;;
76894;SDS011;65855;42.030;13.078;2024-03-02T09:00:56;3.33;;;1.10;;
76894;SDS011;65855;42.030;13.078;2024-03-02T09:03:22;2.78;;;0.98;;
76894;SDS011;65855;42.030;13.078;2024-03-02T09:05:47;3.25;;;1.10;;
76894;SDS011;65855;42.030;13.078;2024-03-02T09:08:13;3.47;;;1.33;;
76894;SDS011;65855;42.030;13.078;2024-03-02T09:10:38;3.88;;;1.45;;
76894;SDS011;65855;42.030;13.078;2024-03-02T09:13:05;4.85;;;1.67;;
76894;SDS011;65855;42.030;13.078;2024-03-02T09:15:30;3.60;;;1.40;;
76894;SDS011;65855;42.030;13.078;2024-03-02T09:17:56;3.80;;;1.20;;
76894;SDS011;65855;42.030;13.078;2024-03-02T09:20:21;5.32;;;1.75;;
76894;SDS011;65855;42.030;13.078;2024-03-02T09:22:47;7.03;;;2.13;;
76894;SDS011;65855;42.030;13.078;2024-03-02T09:25:14;5.25;;;2.05;;
76894;SDS011;65855;42.030;13.078;2024-03-02T09:27:41;4.70;;;1.92;;
76894;SDS011;65855;42.030;13.078;2024-03-02T09:30:09;4.57;;;1.92;;
76894;SDS011;65855;42.030;13.078;2024-03-02T09:32:36;5.55;;;2.17;;
76894;SDS011;65855;42.030;13.078;2024-03-02T09:35:02;7.13;;;2.92;;
76894;SDS011;65855;42.030;13.078;2024-03-02T09:37:27;8.80;;;2.25;;
76894;SDS011;65855;42.030;13.078;2024-03-02T09:39:53;5.07;;;2.20;;
76894;SDS011;65855;42.030;13.078;2024-03-02T09:42:20;3.80;;;1.48;;
76894;SDS011;65855;42.030;13.078;2024-03-02T09:44:45;3.40;;;1.15;;
76894;SDS011;65855;42.030;13.078;2024-03-02T09:47:11;3.25;;;1.33;;
76894;SDS011;65855;42.030;13.078;2024-03-02T09:49:37;3.78;;;1.20;;
76894;SDS011;65855;42.030;13.078;2024-03-02T09:52:02;3.47;;;1.27;;
76894;SDS011;65855;42.030;13.078;2024-03-02T09:54:30;2.72;;;1.30;;
76894;SDS011;65855;42.030;13.078;2024-03-02T09:56:55;2.17;;;0.95;;
76894;SDS011;65855;42.030;13.078;2024-03-02T09:59:21;2.30;;;1.02;;
76894;SDS011;65855;42.030;13.078;2024-03-02T10:02:07;1.80;;;0.70;;
76894;SDS011;65855;42.030;13.078;2024-03-02T10:04:32;2.05;;;0.98;;
76894;SDS011;65855;42.030;13.078;2024-03-02T10:07:16;1.92;;;0.90;;
76894;SDS011;65855;42.030;13.078;2024-03-02T10:09:43;2.30;;;0.90;;
76894;SDS011;65855;42.030;13.078;2024-03-02T10:12:10;2.03;;;0.70;;
76894;SDS011;65855;42.030;13.078;2024-03-02T10:14:37;2.22;;;0.75;;
76894;SDS011;65855;42.030;13.078;2024-03-02T10:17:04;3.50;;;0.70;;
76894;SDS011;65855;42.030;13.078;2024-03-02T10:19:31;2.25;;;0.73;;
76894;SDS011;65855;42.030;13.078;2024-03-02T10:21:58;2.80;;;1.05;;
76894;SDS011;65855;42.030;13.078;2024-03-02T10:24:24;3.90;;;1.40;;
76894;SDS011;65855;42.030;13.078;2024-03-02T10:26:51;6.05;;;1.20;;
76894;SDS011;65855;42.030;13.078;2024-03-02T10:29:17;5.38;;;1.77;;
76894;SDS011;65855;42.030;13.078;2024-03-02T10:31:43;4.65;;;1.30;;
76894;SDS011;65855;42.030;13.078;2024-03-02T10:34:11;3.53;;;0.90;;
76894;SDS011;65855;42.030;13.078;2024-03-02T10:36:37;2.33;;;0.73;;
76894;SDS011;65855;42.030;13.078;2024-03-02T10:39:06;3.78;;;0.98;;
76894;SDS011;65855;42.030;13.078;2024-03-02T10:41:36;4.03;;;0.82;;
76894;SDS011;65855;42.030;13.078;2024-03-02T10:44:03;3.42;;;0.90;;
76894;SDS011;65855;42.030;13.078;2024-03-02T10:46:30;3.38;;;0.90;;
76894;SDS011;65855;42.030;13.078;2024-03-02T10:48:57;2.78;;;1.00;;
76894;SDS011;65855;42.030;13.078;2024-03-02T10:51:24;1.48;;;0.45;;
76894;SDS011;65855;42.030;13.078;2024-03-02T10:53:51;2.00;;;0.70;;
76894;SDS011;65855;42.030;13.078;2024-03-02T10:56:20;1.60;;;0.60;;
76894;SDS011;65855;42.030;13.078;2024-03-02T10:58:53;3.90;;;1.55;;
76894;SDS011;65855;42.030;13.078;2024-03-02T11:01:26;4.28;;;1.20;;
76894;SDS011;65855;42.030;13.078;2024-03-02T11:03:53;1.55;;;0.65;;
76894;SDS011;65855;42.030;13.078;2024-03-02T11:06:19;6.72;;;1.05;;
76894;SDS011;65855;42.030;13.078;2024-03-02T11:08:48;1.67;;;0.55;;
76894;SDS011;65855;42.030;13.078;2024-03-02T11:11:24;1.60;;;0.63;;
76894;SDS011;65855;42.030;13.078;2024-03-02T11:13:54;2.28;;;0.45;;
76894;SDS011;65855;42.030;13.078;2024-03-02T11:16:27;5.35;;;1.25;;
76894;SDS011;65855;42.030;13.078;2024-03-02T11:18:57;1.38;;;0.45;;
76894;SDS011;65855;42.030;13.078;2024-03-02T11:21:24;4.65;;;2.35;;
76894;SDS011;65855;42.030;13.078;2024-03-02T11:23:49;2.58;;;0.70;;
76894;SDS011;65855;42.030;13.078;2024-03-02T11:26:18;4.68;;;0.82;;
76894;SDS011;65855;42.030;13.078;2024-03-02T11:28:50;6.20;;;1.73;;
76894;SDS011;65855;42.030;13.078;2024-03-02T11:31:16;3.20;;;0.65;;
76894;SDS011;65855;42.030;13.078;2024-03-02T11:33:41;4.65;;;0.70;;
76894;SDS011;65855;42.030;13.078;2024-03-02T11:36:08;1.83;;;0.50;;
76894;SDS011;65855;42.030;13.078;2024-03-02T11:38:34;6.05;;;0.82;;
76894;SDS011;65855;42.030;13.078;2024-03-02T11:41:01;3.13;;;0.93;;
76894;SDS011;65855;42.030;13.078;2024-03-02T11:43:28;3.65;;;0.82;;
76894;SDS011;65855;42.030;13.078;2024-03-02T11:46:00;3.28;;;1.02;;
76894;SDS011;65855;42.030;13.078;2024-03-02T11:48:29;2.67;;;0.93;;
76894;SDS011;65855;42.030;13.078;2024-03-02T11:50:54;3.15;;;0.70;;
76894;SDS011;65855;42.030;13.078;2024-03-02T11:53:24;5.90;;;0.95;;
76894;SDS011;65855;42.030;13.078;2024-03-02T11:55:52;1.75;;;0.70;;
76894;SDS011;65855;42.030;13.078;2024-03-02T11:58:20;4.32;;;0.90;;
76894;SDS011;65855;42.030;13.078;2024-03-02T12:00:55;4.88;;;0.77;;
76894;SDS011;65855;42.030;13.078;2024-03-02T12:03:25;2.88;;;0.80;;
76894;SDS011;65855;42.030;13.078;2024-03-02T12:05:51;6.22;;;1.15;;
76894;SDS011;65855;42.030;13.078;2024-03-02T12:08:18;6.65;;;1.05;;
76894;SDS011;65855;42.030;13.078;2024-03-02T12:10:55;3.22;;;1.23;;
76894;SDS011;65855;42.030;13.078;2024-03-02T12:13:25;4.97;;;1.00;;
76894;SDS011;65855;42.030;13.078;2024-03-02T12:15:53;2.33;;;0.70;;
76894;SDS011;65855;42.030;13.078;2024-03-02T12:18:20;4.72;;;1.15;;
76894;SDS011;65855;42.030;13.078;2024-03-02T12:20:46;4.10;;;1.05;;
76894;SDS011;65855;42.030;13.078;2024-03-02T12:23:14;3.83;;;1.10;;
76894;SDS011;65855;42.030;13.078;2024-03-02T12:25:39;5.43;;;1.88;;
76894;SDS011;65855;42.030;13.078;2024-03-02T12:28:05;3.25;;;1.00;;
76894;SDS011;65855;42.030;13.078;2024-03-02T12:30:32;5.47;;;1.20;;
76894;SDS011;65855;42.030;13.078;2024-03-02T12:33:00;3.20;;;1.10;;
76894;SDS011;65855;42.030;13.078;2024-03-02T12:35:26;2.80;;;0.82;;
76894;SDS011;65855;42.030;13.078;2024-03-02T12:37:52;3.38;;;1.30;;
76894;SDS011;65855;42.030;13.078;2024-03-02T12:40:19;2.78;;;0.68;;
76894;SDS011;65855;42.030;13.078;2024-03-02T12:42:47;3.97;;;1.10;;
76894;SDS011;65855;42.030;13.078;2024-03-02T12:45:13;5.28;;;1.08;;
76894;SDS011;65855;42.030;13.078;2024-03-02T12:47:39;3.85;;;1.25;;
76894;SDS011;65855;42.030;13.078;2024-03-02T12:50:06;5.75;;;1.83;;
76894;SDS011;65855;42.030;13.078;2024-03-02T12:52:32;4.82;;;1.73;;
76894;SDS011;65855;42.030;13.078;2024-03-02T12:54:59;3.55;;;1.17;;
76894;SDS011;65855;42.030;13.078;2024-03-02T12:57:26;4.38;;;1.02;;
76894;SDS011;65855;42.030;13.078;2024-03-02T13:00:03;3.35;;;1.02;;
76894;SDS011;65855;42.030;13.078;2024-03-02T13:02:49;4.07;;;1.02;;
76894;SDS011;65855;42.030;13.078;2024-03-02T13:05:15;4.32;;;0.93;;
76894;SDS011;65855;42.030;13.078;2024-03-02T13:07:41;9.95;;;2.22;;
76894;SDS011;65855;42.030;13.078;2024-03-02T13:10:06;9.27;;;1.60;;
76894;SDS011;65855;42.030;13.078;2024-03-02T13:12:34;9.98;;;3.80;;
76894;SDS011;65855;42.030;13.078;2024-03-02T13:15:01;8.95;;;2.80;;
76894;SDS011;65855;42.030;13.078;2024-03-02T13:17:28;5.47;;;1.23;;
76894;SDS011;65855;42.030;13.078;2024-03-02T13:19:58;3.67;;;1.20;;
76894;SDS011;65855;42.030;13.078;2024-03-02T13:22:24;4.00;;;1.00;;
76894;SDS011;65855;42.030;13.078;2024-03-02T13:24:50;7.07;;;3.13;;
76894;SDS011;65855;42.030;13.078;2024-03-02T13:27:17;6.53;;;2.10;;
76894;SDS011;65855;42.030;13.078;2024-03-02T13:29:46;7.05;;;1.73;;
76894;SDS011;65855;42.030;13.078;2024-03-02T13:32:13;5.28;;;1.88;;
76894;SDS011;65855;42.030;13.078;2024-03-02T13:34:41;5.75;;;1.83;;
76894;SDS011;65855;42.030;13.078;2024-03-02T13:37:07;4.95;;;1.77;;
76894;SDS011;65855;42.030;13.078;2024-03-02T13:39:33;5.03;;;1.52;;
76894;SDS011;65855;42.030;13.078;2024-03-02T13:42:04;4.00;;;1.13;;
76894;SDS011;65855;42.030;13.078;2024-03-02T13:44:34;5.00;;;1.58;;
76894;SDS011;65855;42.030;13.078;2024-03-02T13:47:00;5.47;;;1.63;;
76894;SDS011;65855;42.030;13.078;2024-03-02T13:49:26;6.05;;;1.23;;
76894;SDS011;65855;42.030;13.078;2024-03-02T13:51:58;6.20;;;1.77;;
76894;SDS011;65855;42.030;13.078;2024-03-02T13:54:38;3.80;;;0.95;;
76894;SDS011;65855;42.030;13.078;2024-03-02T13:57:11;5.90;;;1.48;;
76894;SDS011;65855;42.030;13.078;2024-03-02T13:59:37;3.75;;;1.55;;
76894;SDS011;65855;42.030;13.078;2024-03-02T14:02:04;2.92;;;1.02;;
76894;SDS011;65855;42.030;13.078;2024-03-02T14:04:31;3.78;;;1.63;;
76894;SDS011;65855;42.030;13.078;2024-03-02T14:06:58;2.75;;;1.48;;
76894;SDS011;65855;42.030;13.078;2024-03-02T14:09:24;3.97;;;1.65;;
76894;SDS011;65855;42.030;13.078;2024-03-02T14:11:50;2.60;;;0.90;;
76894;SDS011;65855;42.030;13.078;2024-03-02T14:14:16;2.90;;;0.90;;
76894;SDS011;65855;42.030;13.078;2024-03-02T14:16:42;4.35;;;1.20;;
76894;SDS011;65855;42.030;13.078;2024-03-02T14:19:07;2.30;;;1.17;;
76894;SDS011;65855;42.030;13.078;2024-03-02T14:21:34;4.65;;;1.42;;
76894;SDS011;65855;42.030;13.078;2024-03-02T14:24:01;4.72;;;1.25;;
76894;SDS011;65855;42.030;13.078;2024-03-02T14:26:26;2.38;;;0.80;;
76894;SDS011;65855;42.030;13.078;2024-03-02T14:28:53;6.93;;;0.73;;
76894;SDS011;65855;42.030;13.078;2024-03-02T14:31:19;5.03;;;1.38;;
76894;SDS011;65855;42.030;13.078;2024-03-02T14:33:45;3.97;;;1.10;;
76894;SDS011;65855;42.030;13.078;2024-03-02T14:36:11;4.50;;;0.90;;